Hinton, Oklahoma
Current Conditions -  °F | °C
As of 10:35 AM on Saturday 22 Nov 2014 (Local Time) from KOJA Reporting Station
Haze Haze  
Wind Chill: 54°   Ceiling: 400
Heat Index: 54°   Visibility: 2mi
Dew Point: 54°   Wind: 10mph
Humidity: 100%   Direction: 160°SSE
Pressure: 29.96"   Gusts: NA
Location:  35.47°N, 98.36°W
Report Text: KOJA 221635Z AUTO 16009KT 2SM BR OVC004 12/12 A2996 RMK AO2 LTG DSNT SE THRU SW
Loading
Personal Weather Stations






























Interactive Weather Map New forecast layout! Learn more

10-Day Weather Forecast

Advertisements
Track Severe Weather on mobile